createdAt,value
2022-10-25T00:02:10.321Z,12.8
2022-10-25T00:07:12.449Z,12.8
2022-10-25T00:12:14.381Z,12.8
2022-10-25T00:17:16.268Z,12.8
2022-10-25T00:22:18.381Z,12.8
2022-10-25T00:27:20.551Z,12.7
2022-10-25T00:32:22.477Z,12.6
2022-10-25T00:37:24.880Z,12.5
2022-10-25T00:42:26.826Z,12.5
2022-10-25T00:47:28.813Z,12.5
2022-10-25T00:52:31.225Z,12.5
2022-10-25T00:57:33.164Z,12.4
2022-10-25T01:02:35.672Z,12.2
2022-10-25T01:07:38.236Z,12.2
2022-10-25T01:12:40.207Z,12.2
2022-10-25T01:17:42.530Z,12.3
2022-10-25T01:22:45.415Z,12.3
2022-10-25T01:27:48.206Z,12.3
2022-10-25T01:32:50.969Z,12.2
2022-10-25T01:37:53.338Z,12
2022-10-25T01:42:58.166Z,12
2022-10-25T01:48:00.108Z,12
2022-10-25T01:58:03.343Z,12
2022-10-25T02:03:05.356Z,12.1
2022-10-25T02:08:07.534Z,12.1
2022-10-25T02:13:09.494Z,12.2
2022-10-25T02:18:11.369Z,12.2
2022-10-25T02:23:14.192Z,12.3
2022-10-25T02:28:16.111Z,12.2
2022-10-25T02:33:18.197Z,12.3
2022-10-25T02:38:20.120Z,12.3
2022-10-25T02:43:22.154Z,12.2
2022-10-25T02:48:24.179Z,12.3
2022-10-25T02:53:26.111Z,12.3
2022-10-25T02:58:28.078Z,12.3
2022-10-25T03:08:30.435Z,12.3
2022-10-25T03:13:32.398Z,12.4
2022-10-25T03:18:34.250Z,12.5
2022-10-25T03:23:36.198Z,12.5
2022-10-25T03:28:38.239Z,12.5
2022-10-25T03:33:40.182Z,12.7
2022-10-25T03:38:42.099Z,12.7
2022-10-25T03:43:44.130Z,12.7
2022-10-25T03:48:48.309Z,12.7
2022-10-25T03:53:50.356Z,12.7
2022-10-25T03:58:53.054Z,12.7
2022-10-25T04:03:55.078Z,12.6
2022-10-25T04:08:56.980Z,12.6
2022-10-25T04:13:58.933Z,12.6
2022-10-25T04:19:00.844Z,12.6
2022-10-25T04:24:06.333Z,12.8
2022-10-25T04:29:08.305Z,12.8
2022-10-25T04:34:10.192Z,12.8
2022-10-25T04:39:13.117Z,12.9
2022-10-25T04:44:15.053Z,12.9
2022-10-25T04:49:17.127Z,13
2022-10-25T04:54:19.410Z,13.1
2022-10-25T04:59:21.395Z,13.2
2022-10-25T05:04:23.339Z,13.2
2022-10-25T05:09:25.413Z,13.3
2022-10-25T05:14:27.311Z,13.4
2022-10-25T05:19:29.691Z,13.4
2022-10-25T05:24:32.413Z,13.5
2022-10-25T05:29:34.447Z,13.4
2022-10-25T05:34:36.425Z,13.5
2022-10-25T05:39:38.473Z,13.5
2022-10-25T05:44:40.753Z,13.5
2022-10-25T05:49:42.776Z,13.7
2022-10-25T05:54:46.964Z,13.8
2022-10-25T05:59:48.962Z,13.9
2022-10-25T06:04:54.345Z,13.9
2022-10-25T06:09:56.293Z,13.8
2022-10-25T06:14:58.219Z,14
2022-10-25T06:20:00.082Z,14.2
2022-10-25T06:25:02.458Z,14.5
2022-10-25T06:30:04.784Z,14.5
2022-10-25T06:35:06.764Z,15.2
2022-10-25T06:40:08.758Z,15.9
2022-10-25T06:45:10.877Z,16.7
2022-10-25T06:50:12.828Z,17
2022-10-25T06:55:14.801Z,16.6
2022-10-25T07:00:17.659Z,15.6
2022-10-25T07:05:19.590Z,15.5
2022-10-25T07:10:21.580Z,15
2022-10-25T07:15:23.621Z,14.6
2022-10-25T07:20:26.453Z,14.6
2022-10-25T07:25:28.650Z,14.5
2022-10-25T07:30:30.950Z,14.8
2022-10-25T07:36:06.445Z,15.5
2022-10-25T07:40:33.313Z,15.5
2022-10-25T07:45:35.193Z,15.8
2022-10-25T07:50:37.161Z,16.1
2022-10-25T07:55:39.293Z,16.2
2022-10-25T08:00:41.275Z,16.1
2022-10-25T08:05:43.521Z,16.1
2022-10-25T08:10:46.031Z,15.7
2022-10-25T08:15:48.086Z,15.6
2022-10-25T08:21:06.370Z,15.6
2022-10-25T08:25:58.272Z,15.5
2022-10-25T08:31:00.407Z,15.7
2022-10-25T08:36:03.151Z,16.1
2022-10-25T08:41:06.304Z,16.4
2022-10-25T08:46:08.243Z,16.3
2022-10-25T08:51:10.227Z,16.7
2022-10-25T08:56:19.056Z,17.2
2022-10-25T09:01:22.145Z,17.3
2022-10-25T09:06:24.696Z,17.3
2022-10-25T09:11:26.545Z,17.3
2022-10-25T09:16:28.694Z,17.2
2022-10-25T09:21:30.616Z,17.1
2022-10-25T09:26:32.927Z,16.9
2022-10-25T09:31:34.885Z,16.7
2022-10-25T09:36:36.785Z,16.7
2022-10-25T09:41:38.813Z,16.6
2022-10-25T09:46:40.760Z,16.4
2022-10-25T09:51:42.679Z,16.3
2022-10-25T09:56:46.678Z,16.4
2022-10-25T10:01:51.069Z,16.2
2022-10-25T10:06:53.509Z,16.1
2022-10-25T10:11:55.445Z,16
2022-10-25T10:16:57.412Z,15.7
2022-10-25T10:21:59.373Z,15.6
2022-10-25T10:27:01.271Z,15.6
2022-10-25T10:32:03.244Z,15.6
2022-10-25T10:37:05.200Z,15.7
2022-10-25T10:42:08.859Z,15.7
2022-10-25T10:47:16.153Z,15.8
2022-10-25T10:52:18.767Z,16.1
2022-10-25T10:57:20.865Z,16
2022-10-25T11:02:24.456Z,17.1
2022-10-25T11:07:27.452Z,17.1
2022-10-25T11:12:29.610Z,17.6
2022-10-25T11:17:31.741Z,17.6
2022-10-25T11:22:35.236Z,17.4
2022-10-25T11:27:37.174Z,17.4
2022-10-25T11:37:40.415Z,17
2022-10-25T11:42:42.581Z,17.2
2022-10-25T11:47:45.325Z,17.2
2022-10-25T11:52:50.140Z,16.9
2022-10-25T11:57:57.335Z,16.9
2022-10-25T12:02:59.534Z,17
2022-10-25T12:08:01.646Z,17.3
2022-10-25T12:13:03.792Z,17.7
2022-10-25T12:18:05.851Z,19.2
2022-10-25T12:23:07.877Z,20.7
2022-10-25T12:28:10.843Z,20.6
2022-10-25T12:33:12.792Z,19.9
2022-10-25T12:38:14.684Z,19.5
2022-10-25T12:43:16.542Z,18.9
2022-10-25T12:48:18.426Z,18.3
2022-10-25T12:53:20.330Z,18.2
2022-10-25T12:58:22.238Z,18
2022-10-25T13:03:24.415Z,17.9
2022-10-25T13:08:26.365Z,17.8
2022-10-25T13:13:28.321Z,17.7
2022-10-25T13:18:30.245Z,17.9
2022-10-25T13:23:32.176Z,18.1
2022-10-25T13:28:38.265Z,18.7
2022-10-25T13:33:40.178Z,18.7
2022-10-25T13:38:42.063Z,18.8
2022-10-25T13:43:44.110Z,18.9
2022-10-25T13:48:46.060Z,19.4
2022-10-25T13:53:48.247Z,20
2022-10-25T13:58:50.145Z,19.8
2022-10-25T14:03:52.257Z,19.5
2022-10-25T14:08:54.177Z,19.3
2022-10-25T14:13:56.225Z,19.1
2022-10-25T14:18:58.293Z,19.1
2022-10-25T14:24:00.227Z,18.8
2022-10-25T14:29:02.273Z,18.7
2022-10-25T14:34:04.289Z,18.4
2022-10-25T14:39:06.218Z,18.2
2022-10-25T14:44:10.717Z,18.1
2022-10-25T14:49:16.376Z,18
2022-10-25T14:54:18.292Z,18
2022-10-25T14:59:20.184Z,17.9
2022-10-25T15:04:22.162Z,17.8
2022-10-25T15:09:44.631Z,17.5
2022-10-25T15:14:26.595Z,17.4
2022-10-25T15:19:28.557Z,17.3
2022-10-25T15:24:30.457Z,17.2
2022-10-25T15:29:32.641Z,17
2022-10-25T15:34:34.664Z,16.6
2022-10-25T15:39:37.284Z,16
2022-10-25T15:44:39.572Z,16
2022-10-25T15:49:41.539Z,15.8
2022-10-25T15:54:43.422Z,15.5
2022-10-25T15:59:45.376Z,15.4
2022-10-25T16:04:47.333Z,15.2
2022-10-25T16:09:49.213Z,15
2022-10-25T16:14:51.112Z,14.8
2022-10-25T16:19:54.534Z,14.7
2022-10-25T16:24:56.419Z,14.6
2022-10-25T16:29:58.821Z,14.4
2022-10-25T16:35:00.670Z,14.4
2022-10-25T16:40:02.930Z,14.3
2022-10-25T16:45:05.000Z,14.2
2022-10-25T16:50:06.908Z,14.1
2022-10-25T16:55:08.854Z,14
2022-10-25T17:00:10.911Z,13.9
2022-10-25T17:05:12.914Z,13.8
2022-10-25T17:10:14.959Z,13.8
2022-10-25T17:15:16.913Z,13.7
2022-10-25T17:20:18.727Z,13.5
2022-10-25T17:25:20.638Z,13.5
2022-10-25T17:30:22.589Z,13.4
2022-10-25T17:35:30.998Z,13.2
2022-10-25T17:40:32.990Z,13.2
2022-10-25T17:45:35.546Z,13
2022-10-25T17:50:38.257Z,13
2022-10-25T17:55:42.883Z,12.9
2022-10-25T18:00:44.966Z,12.9
2022-10-25T18:05:47.023Z,12.9
2022-10-25T18:10:48.923Z,12.9
2022-10-25T18:15:50.894Z,12.9
2022-10-25T18:30:57.408Z,12.6
2022-10-25T18:35:59.325Z,12.6
2022-10-25T18:41:01.393Z,12.6
2022-10-25T18:46:03.434Z,12.5
2022-10-25T18:51:05.410Z,12.5
2022-10-25T18:56:07.404Z,12.5
2022-10-25T19:01:14.819Z,12.4
2022-10-25T19:06:17.541Z,12.4
2022-10-25T19:11:19.498Z,12.3
2022-10-25T19:16:21.439Z,12.3
2022-10-25T19:21:23.715Z,12.2
2022-10-25T19:26:26.310Z,12
2022-10-25T19:31:30.260Z,12
2022-10-25T19:36:32.504Z,11.9
2022-10-25T19:41:34.609Z,11.9
2022-10-25T19:46:36.685Z,11.8
2022-10-25T19:51:38.532Z,11.7
2022-10-25T19:56:40.408Z,11.6
2022-10-25T20:01:43.008Z,11.7
2022-10-25T20:11:46.058Z,11.8
2022-10-25T20:16:48.023Z,11.8
2022-10-25T20:21:49.964Z,11.9
2022-10-25T20:26:51.882Z,11.9
2022-10-25T20:31:53.763Z,11.8
2022-10-25T20:36:56.461Z,11.7
2022-10-25T20:41:58.588Z,11.6
2022-10-25T20:47:00.624Z,11.6
2022-10-25T20:52:02.507Z,11.5
2022-10-25T20:57:04.565Z,11.6
2022-10-25T21:07:07.814Z,11.5
2022-10-25T21:12:10.083Z,11.4
2022-10-25T21:17:12.092Z,11.3
2022-10-25T21:22:13.976Z,11.2
2022-10-25T21:27:15.872Z,11.1
2022-10-25T21:32:18.297Z,11.1
2022-10-25T21:37:20.241Z,11
2022-10-25T21:42:22.274Z,11.1
2022-10-25T21:47:24.384Z,11.2
2022-10-25T21:52:26.416Z,11.1
2022-10-25T21:57:28.287Z,11.2
2022-10-25T22:02:31.484Z,11
2022-10-25T22:07:34.371Z,11
2022-10-25T22:12:36.350Z,11
2022-10-25T22:17:38.394Z,11
2022-10-25T22:22:40.482Z,10.9
2022-10-25T22:32:44.935Z,10.8
2022-10-25T22:37:48.321Z,10.8
2022-10-25T22:42:50.969Z,10.8
2022-10-25T22:47:53.351Z,10.7
2022-10-25T22:52:55.315Z,10.6
2022-10-25T22:57:57.253Z,10.7
2022-10-25T23:02:59.432Z,10.8
2022-10-25T23:08:01.827Z,10.8
2022-10-25T23:13:04.213Z,10.7
2022-10-25T23:18:06.413Z,10.7
2022-10-25T23:23:08.338Z,10.6
2022-10-25T23:28:10.574Z,10.6
2022-10-25T23:33:12.623Z,10.6
2022-10-25T23:38:14.514Z,10.5
2022-10-25T23:43:16.530Z,10.5
2022-10-25T23:48:18.506Z,10.5
2022-10-25T23:53:20.431Z,10.4
2022-10-25T23:58:22.326Z,10.4
